sensor_id;sensor_type;location;lat;lon;timestamp;temperature;humidity
23137;DHT22;11737;50.558;7.258;2022-11-15T00:01:15;11.70;99.90
23137;DHT22;11737;50.558;7.258;2022-11-15T00:03:41;11.80;99.90
23137;DHT22;11737;50.558;7.258;2022-11-15T00:06:09;11.80;99.90
23137;DHT22;11737;50.558;7.258;2022-11-15T00:08:36;11.80;99.90
23137;DHT22;11737;50.558;7.258;2022-11-15T00:11:04;11.70;99.90
23137;DHT22;11737;50.558;7.258;2022-11-15T00:13:31;11.70;99.90
23137;DHT22;11737;50.558;7.258;2022-11-15T00:16:00;11.70;99.90
23137;DHT22;11737;50.558;7.258;2022-11-15T00:18:29;11.80;99.90
23137;DHT22;11737;50.558;7.258;2022-11-15T00:21:05;11.80;99.90
23137;DHT22;11737;50.558;7.258;2022-11-15T00:23:33;11.90;99.90
23137;DHT22;11737;50.558;7.258;2022-11-15T00:26:01;11.90;99.90
23137;DHT22;11737;50.558;7.258;2022-11-15T00:28:29;11.90;99.90
23137;DHT22;11737;50.558;7.258;2022-11-15T00:31:05;12.00;99.90
23137;DHT22;11737;50.558;7.258;2022-11-15T00:33:33;12.00;99.90
23137;DHT22;11737;50.558;7.258;2022-11-15T00:36:07;12.00;99.90
23137;DHT22;11737;50.558;7.258;2022-11-15T00:38:35;12.10;99.90
23137;DHT22;11737;50.558;7.258;2022-11-15T00:41:04;12.20;99.90
23137;DHT22;11737;50.558;7.258;2022-11-15T00:43:32;12.20;99.90
23137;DHT22;11737;50.558;7.258;2022-11-15T00:46:01;12.20;99.90
23137;DHT22;11737;50.558;7.258;2022-11-15T00:48:29;12.20;99.90
23137;DHT22;11737;50.558;7.258;2022-11-15T00:50:58;12.20;99.90
23137;DHT22;11737;50.558;7.258;2022-11-15T00:53:25;12.20;99.90
23137;DHT22;11737;50.558;7.258;2022-11-15T00:55:53;12.20;99.90
23137;DHT22;11737;50.558;7.258;2022-11-15T00:58:20;12.20;99.90
23137;DHT22;11737;50.558;7.258;2022-11-15T01:00:48;12.20;99.90
23137;DHT22;11737;50.558;7.258;2022-11-15T01:03:15;12.20;99.90
23137;DHT22;11737;50.558;7.258;2022-11-15T01:05:43;12.10;99.90
23137;DHT22;11737;50.558;7.258;2022-11-15T01:08:14;12.10;99.90
23137;DHT22;11737;50.558;7.258;2022-11-15T01:10:42;12.10;99.90
23137;DHT22;11737;50.558;7.258;2022-11-15T01:13:10;12.10;99.90
23137;DHT22;11737;50.558;7.258;2022-11-15T01:15:39;12.10;99.90
23137;DHT22;11737;50.558;7.258;2022-11-15T01:18:07;12.10;99.90
23137;DHT22;11737;50.558;7.258;2022-11-15T01:20:38;12.00;99.90
23137;DHT22;11737;50.558;7.258;2022-11-15T01:23:04;11.90;99.90
23137;DHT22;11737;50.558;7.258;2022-11-15T01:25:31;11.80;99.90
23137;DHT22;11737;50.558;7.258;2022-11-15T01:27:58;11.80;99.90
23137;DHT22;11737;50.558;7.258;2022-11-15T01:30:26;11.80;99.90
23137;DHT22;11737;50.558;7.258;2022-11-15T01:32:53;11.80;99.90
23137;DHT22;11737;50.558;7.258;2022-11-15T01:35:21;11.90;99.90
23137;DHT22;11737;50.558;7.258;2022-11-15T01:37:48;11.90;99.90
23137;DHT22;11737;50.558;7.258;2022-11-15T01:40:16;11.90;99.90
23137;DHT22;11737;50.558;7.258;2022-11-15T01:42:43;12.00;99.90
23137;DHT22;11737;50.558;7.258;2022-11-15T01:45:15;12.10;99.90
23137;DHT22;11737;50.558;7.258;2022-11-15T01:47:46;12.10;99.90
23137;DHT22;11737;50.558;7.258;2022-11-15T01:50:16;12.00;99.90
23137;DHT22;11737;50.558;7.258;2022-11-15T01:52:44;12.10;99.90
23137;DHT22;11737;50.558;7.258;2022-11-15T01:55:19;12.20;99.90
23137;DHT22;11737;50.558;7.258;2022-11-15T01:57:47;12.20;99.90
23137;DHT22;11737;50.558;7.258;2022-11-15T02:00:17;12.30;99.90
23137;DHT22;11737;50.558;7.258;2022-11-15T02:02:44;12.30;99.90
23137;DHT22;11737;50.558;7.258;2022-11-15T02:05:12;12.30;99.90
23137;DHT22;11737;50.558;7.258;2022-11-15T02:07:40;12.40;99.90
23137;DHT22;11737;50.558;7.258;2022-11-15T02:12:59;12.40;99.90
23137;DHT22;11737;50.558;7.258;2022-11-15T02:15:31;12.50;99.90
23137;DHT22;11737;50.558;7.258;2022-11-15T02:21:04;12.50;99.90
23137;DHT22;11737;50.558;7.258;2022-11-15T02:29:54;12.50;99.90
23137;DHT22;11737;50.558;7.258;2022-11-15T02:32:39;12.60;99.90
23137;DHT22;11737;50.558;7.258;2022-11-15T02:38:16;12.60;99.90
23137;DHT22;11737;50.558;7.258;2022-11-15T02:41:09;12.60;99.90
23137;DHT22;11737;50.558;7.258;2022-11-15T02:43:47;12.60;99.90
23137;DHT22;11737;50.558;7.258;2022-11-15T02:46:57;12.70;99.90
23137;DHT22;11737;50.558;7.258;2022-11-15T02:49:45;12.70;99.90
23137;DHT22;11737;50.558;7.258;2022-11-15T02:52:17;12.70;99.90
23137;DHT22;11737;50.558;7.258;2022-11-15T02:54:53;12.70;99.90
23137;DHT22;11737;50.558;7.258;2022-11-15T02:57:30;12.70;99.90
23137;DHT22;11737;50.558;7.258;2022-11-15T03:00:00;12.70;99.90
23137;DHT22;11737;50.558;7.258;2022-11-15T03:05:35;12.80;99.90
23137;DHT22;11737;50.558;7.258;2022-11-15T03:08:10;12.90;99.90
23137;DHT22;11737;50.558;7.258;2022-11-15T03:10:46;12.90;99.90
23137;DHT22;11737;50.558;7.258;2022-11-15T03:13:16;12.90;99.90
23137;DHT22;11737;50.558;7.258;2022-11-15T03:15:49;12.90;99.90
23137;DHT22;11737;50.558;7.258;2022-11-15T03:18:15;12.90;99.90
23137;DHT22;11737;50.558;7.258;2022-11-15T03:20:42;12.90;99.90
23137;DHT22;11737;50.558;7.258;2022-11-15T03:23:11;13.00;99.90
23137;DHT22;11737;50.558;7.258;2022-11-15T03:25:41;13.00;99.90
23137;DHT22;11737;50.558;7.258;2022-11-15T03:28:12;13.00;99.90
23137;DHT22;11737;50.558;7.258;2022-11-15T03:30:41;13.00;99.90
23137;DHT22;11737;50.558;7.258;2022-11-15T03:33:11;13.00;99.90
23137;DHT22;11737;50.558;7.258;2022-11-15T03:35:40;13.00;99.90
23137;DHT22;11737;50.558;7.258;2022-11-15T03:43:57;13.10;99.90
23137;DHT22;11737;50.558;7.258;2022-11-15T03:46:32;13.10;99.90
23137;DHT22;11737;50.558;7.258;2022-11-15T03:51:49;13.10;99.90
23137;DHT22;11737;50.558;7.258;2022-11-15T03:54:17;13.20;99.90
23137;DHT22;11737;50.558;7.258;2022-11-15T03:56:44;13.20;99.90
23137;DHT22;11737;50.558;7.258;2022-11-15T03:59:12;13.20;99.90
23137;DHT22;11737;50.558;7.258;2022-11-15T04:01:39;13.20;99.90
23137;DHT22;11737;50.558;7.258;2022-11-15T04:04:07;13.20;99.90
23137;DHT22;11737;50.558;7.258;2022-11-15T04:06:34;13.20;99.90
23137;DHT22;11737;50.558;7.258;2022-11-15T04:09:02;13.10;99.90
23137;DHT22;11737;50.558;7.258;2022-11-15T04:11:29;13.20;99.90
23137;DHT22;11737;50.558;7.258;2022-11-15T04:13:57;13.20;99.90
23137;DHT22;11737;50.558;7.258;2022-11-15T04:16:24;13.30;99.90
23137;DHT22;11737;50.558;7.258;2022-11-15T04:18:52;13.20;99.90
23137;DHT22;11737;50.558;7.258;2022-11-15T04:21:38;13.30;99.90
23137;DHT22;11737;50.558;7.258;2022-11-15T04:24:23;13.30;99.90
23137;DHT22;11737;50.558;7.258;2022-11-15T04:26:51;13.30;99.90
23137;DHT22;11737;50.558;7.258;2022-11-15T04:29:18;13.20;99.90
23137;DHT22;11737;50.558;7.258;2022-11-15T04:31:47;13.20;99.90
23137;DHT22;11737;50.558;7.258;2022-11-15T04:34:15;13.20;99.90
23137;DHT22;11737;50.558;7.258;2022-11-15T04:36:42;13.30;99.90
23137;DHT22;11737;50.558;7.258;2022-11-15T04:39:28;13.30;99.90
23137;DHT22;11737;50.558;7.258;2022-11-15T04:41:56;13.30;99.90
23137;DHT22;11737;50.558;7.258;2022-11-15T04:44:23;13.20;99.90
23137;DHT22;11737;50.558;7.258;2022-11-15T04:46:51;13.20;99.90
23137;DHT22;11737;50.558;7.258;2022-11-15T04:49:18;13.20;99.90
23137;DHT22;11737;50.558;7.258;2022-11-15T04:51:46;13.20;99.90
23137;DHT22;11737;50.558;7.258;2022-11-15T04:54:13;13.20;99.90
23137;DHT22;11737;50.558;7.258;2022-11-15T04:56:41;13.20;99.90
23137;DHT22;11737;50.558;7.258;2022-11-15T04:59:08;13.20;99.90
23137;DHT22;11737;50.558;7.258;2022-11-15T05:01:36;13.20;99.90
23137;DHT22;11737;50.558;7.258;2022-11-15T05:04:04;13.20;99.90
23137;DHT22;11737;50.558;7.258;2022-11-15T05:06:48;13.20;99.90
23137;DHT22;11737;50.558;7.258;2022-11-15T05:09:17;13.10;99.90
23137;DHT22;11737;50.558;7.258;2022-11-15T05:11:45;13.10;99.90
23137;DHT22;11737;50.558;7.258;2022-11-15T05:14:14;13.10;99.90
23137;DHT22;11737;50.558;7.258;2022-11-15T05:16:42;13.00;99.90
23137;DHT22;11737;50.558;7.258;2022-11-15T05:19:10;13.00;99.90
23137;DHT22;11737;50.558;7.258;2022-11-15T05:21:37;13.00;99.90
23137;DHT22;11737;50.558;7.258;2022-11-15T05:24:05;13.10;99.90
23137;DHT22;11737;50.558;7.258;2022-11-15T05:26:32;13.10;99.90
23137;DHT22;11737;50.558;7.258;2022-11-15T05:29:00;13.10;99.90
23137;DHT22;11737;50.558;7.258;2022-11-15T05:31:27;13.10;99.90
23137;DHT22;11737;50.558;7.258;2022-11-15T05:33:56;13.20;99.90
23137;DHT22;11737;50.558;7.258;2022-11-15T05:36:41;13.10;99.90
23137;DHT22;11737;50.558;7.258;2022-11-15T05:39:08;13.10;99.90
23137;DHT22;11737;50.558;7.258;2022-11-15T05:41:50;13.00;99.90
23137;DHT22;11737;50.558;7.258;2022-11-15T05:44:21;12.90;99.90
23137;DHT22;11737;50.558;7.258;2022-11-15T05:46:50;12.80;99.90
23137;DHT22;11737;50.558;7.258;2022-11-15T05:49:22;12.70;99.90
23137;DHT22;11737;50.558;7.258;2022-11-15T05:51:52;12.60;99.90
23137;DHT22;11737;50.558;7.258;2022-11-15T05:54:21;12.60;99.90
23137;DHT22;11737;50.558;7.258;2022-11-15T05:56:49;12.50;99.90
23137;DHT22;11737;50.558;7.258;2022-11-15T05:59:18;12.50;99.90
23137;DHT22;11737;50.558;7.258;2022-11-15T06:01:46;12.50;99.90
23137;DHT22;11737;50.558;7.258;2022-11-15T06:04:13;12.60;99.90
23137;DHT22;11737;50.558;7.258;2022-11-15T06:06:41;12.60;99.90
23137;DHT22;11737;50.558;7.258;2022-11-15T06:09:08;12.60;99.90
23137;DHT22;11737;50.558;7.258;2022-11-15T06:11:36;12.60;99.90
23137;DHT22;11737;50.558;7.258;2022-11-15T06:14:03;12.60;99.90
23137;DHT22;11737;50.558;7.258;2022-11-15T06:16:31;12.70;99.90
23137;DHT22;11737;50.558;7.258;2022-11-15T06:18:58;12.70;99.90
23137;DHT22;11737;50.558;7.258;2022-11-15T06:21:26;12.70;99.90
23137;DHT22;11737;50.558;7.258;2022-11-15T06:23:55;12.70;99.90
23137;DHT22;11737;50.558;7.258;2022-11-15T06:26:23;12.60;99.90
23137;DHT22;11737;50.558;7.258;2022-11-15T06:28:50;12.50;99.90
23137;DHT22;11737;50.558;7.258;2022-11-15T06:31:17;12.40;99.90
23137;DHT22;11737;50.558;7.258;2022-11-15T06:33:46;12.30;99.90
23137;DHT22;11737;50.558;7.258;2022-11-15T06:36:16;12.30;99.90
23137;DHT22;11737;50.558;7.258;2022-11-15T06:38:47;12.30;99.90
23137;DHT22;11737;50.558;7.258;2022-11-15T06:41:15;12.30;99.90
23137;DHT22;11737;50.558;7.258;2022-11-15T06:43:43;12.40;99.90
23137;DHT22;11737;50.558;7.258;2022-11-15T06:46:10;12.40;99.90
23137;DHT22;11737;50.558;7.258;2022-11-15T06:48:38;12.40;99.90
23137;DHT22;11737;50.558;7.258;2022-11-15T06:51:05;12.40;99.90
23137;DHT22;11737;50.558;7.258;2022-11-15T06:53:33;12.40;99.90
23137;DHT22;11737;50.558;7.258;2022-11-15T06:56:03;12.40;99.90
23137;DHT22;11737;50.558;7.258;2022-11-15T06:58:31;12.30;99.90
23137;DHT22;11737;50.558;7.258;2022-11-15T07:01:09;12.20;99.90
23137;DHT22;11737;50.558;7.258;2022-11-15T07:03:34;12.10;99.90
23137;DHT22;11737;50.558;7.258;2022-11-15T07:06:02;12.10;99.90
23137;DHT22;11737;50.558;7.258;2022-11-15T07:08:30;12.00;99.90
23137;DHT22;11737;50.558;7.258;2022-11-15T07:11:02;11.90;99.90
23137;DHT22;11737;50.558;7.258;2022-11-15T07:13:31;11.90;99.90
23137;DHT22;11737;50.558;7.258;2022-11-15T07:16:09;11.80;99.90
23137;DHT22;11737;50.558;7.258;2022-11-15T07:18:37;11.70;99.90
23137;DHT22;11737;50.558;7.258;2022-11-15T07:21:11;11.70;99.90
23137;DHT22;11737;50.558;7.258;2022-11-15T07:26:26;11.60;99.90
23137;DHT22;11737;50.558;7.258;2022-11-15T07:28:54;11.60;99.90
23137;DHT22;11737;50.558;7.258;2022-11-15T07:31:21;11.60;99.90
23137;DHT22;11737;50.558;7.258;2022-11-15T07:33:49;11.60;99.90
23137;DHT22;11737;50.558;7.258;2022-11-15T07:36:17;11.60;99.90
23137;DHT22;11737;50.558;7.258;2022-11-15T07:38:44;11.60;99.90
23137;DHT22;11737;50.558;7.258;2022-11-15T07:41:12;11.60;99.90
23137;DHT22;11737;50.558;7.258;2022-11-15T07:43:39;11.60;99.90
23137;DHT22;11737;50.558;7.258;2022-11-15T07:46:08;11.70;99.90
23137;DHT22;11737;50.558;7.258;2022-11-15T07:48:39;11.70;99.90
23137;DHT22;11737;50.558;7.258;2022-11-15T07:53:55;11.80;99.90
23137;DHT22;11737;50.558;7.258;2022-11-15T07:56:22;11.80;99.90
23137;DHT22;11737;50.558;7.258;2022-11-15T07:58:50;11.80;99.90
23137;DHT22;11737;50.558;7.258;2022-11-15T08:01:17;11.90;99.90
23137;DHT22;11737;50.558;7.258;2022-11-15T08:03:45;11.90;99.90
23137;DHT22;11737;50.558;7.258;2022-11-15T08:06:12;12.00;99.90
23137;DHT22;11737;50.558;7.258;2022-11-15T08:08:40;12.10;99.90
23137;DHT22;11737;50.558;7.258;2022-11-15T08:11:07;12.10;99.90
23137;DHT22;11737;50.558;7.258;2022-11-15T08:13:35;12.20;99.90
23137;DHT22;11737;50.558;7.258;2022-11-15T08:16:03;12.20;99.90
23137;DHT22;11737;50.558;7.258;2022-11-15T08:18:31;12.30;99.90
23137;DHT22;11737;50.558;7.258;2022-11-15T08:21:00;12.40;99.90
23137;DHT22;11737;50.558;7.258;2022-11-15T08:23:28;12.50;99.90
23137;DHT22;11737;50.558;7.258;2022-11-15T08:26:01;12.50;99.90
23137;DHT22;11737;50.558;7.258;2022-11-15T08:28:29;12.60;99.90
23137;DHT22;11737;50.558;7.258;2022-11-15T08:30:57;12.70;99.90
23137;DHT22;11737;50.558;7.258;2022-11-15T08:33:24;12.70;99.90
23137;DHT22;11737;50.558;7.258;2022-11-15T08:35:52;12.80;99.90
23137;DHT22;11737;50.558;7.258;2022-11-15T08:38:19;12.80;99.90
23137;DHT22;11737;50.558;7.258;2022-11-15T08:40:47;12.80;99.90
23137;DHT22;11737;50.558;7.258;2022-11-15T08:43:14;12.80;99.90
23137;DHT22;11737;50.558;7.258;2022-11-15T08:45:42;12.90;99.90
23137;DHT22;11737;50.558;7.258;2022-11-15T08:48:09;13.00;99.90
23137;DHT22;11737;50.558;7.258;2022-11-15T08:50:37;13.10;99.90
23137;DHT22;11737;50.558;7.258;2022-11-15T08:53:06;13.10;99.90
23137;DHT22;11737;50.558;7.258;2022-11-15T08:55:39;13.10;99.90
23137;DHT22;11737;50.558;7.258;2022-11-15T08:58:07;13.20;99.90
23137;DHT22;11737;50.558;7.258;2022-11-15T09:00:34;13.30;99.90
23137;DHT22;11737;50.558;7.258;2022-11-15T09:03:04;13.40;99.90
23137;DHT22;11737;50.558;7.258;2022-11-15T09:05:32;13.40;99.90
23137;DHT22;11737;50.558;7.258;2022-11-15T09:07:59;13.50;99.90
23137;DHT22;11737;50.558;7.258;2022-11-15T09:10:27;13.60;99.90
23137;DHT22;11737;50.558;7.258;2022-11-15T09:12:57;13.60;99.90
23137;DHT22;11737;50.558;7.258;2022-11-15T09:15:24;13.80;99.90
23137;DHT22;11737;50.558;7.258;2022-11-15T09:17:52;13.90;99.90
23137;DHT22;11737;50.558;7.258;2022-11-15T09:20:39;14.00;99.90
23137;DHT22;11737;50.558;7.258;2022-11-15T09:23:06;14.10;99.90
23137;DHT22;11737;50.558;7.258;2022-11-15T09:25:34;14.10;99.90
23137;DHT22;11737;50.558;7.258;2022-11-15T09:28:07;14.20;99.90
23137;DHT22;11737;50.558;7.258;2022-11-15T09:30:35;14.30;99.90
23137;DHT22;11737;50.558;7.258;2022-11-15T09:33:09;14.30;99.90
23137;DHT22;11737;50.558;7.258;2022-11-15T09:35:37;14.30;99.90
23137;DHT22;11737;50.558;7.258;2022-11-15T09:38:07;14.40;99.90
23137;DHT22;11737;50.558;7.258;2022-11-15T09:40:36;14.50;99.90
23137;DHT22;11737;50.558;7.258;2022-11-15T09:43:26;14.50;99.90
23137;DHT22;11737;50.558;7.258;2022-11-15T09:46:10;14.60;99.90
23137;DHT22;11737;50.558;7.258;2022-11-15T09:48:46;14.70;99.90
23137;DHT22;11737;50.558;7.258;2022-11-15T09:51:39;14.80;99.90
23137;DHT22;11737;50.558;7.258;2022-11-15T09:54:36;14.80;99.90
23137;DHT22;11737;50.558;7.258;2022-11-15T09:57:10;14.90;99.90
23137;DHT22;11737;50.558;7.258;2022-11-15T10:02:46;15.00;99.90
23137;DHT22;11737;50.558;7.258;2022-11-15T10:05:16;15.10;99.90
23137;DHT22;11737;50.558;7.258;2022-11-15T10:08:16;15.20;99.90
23137;DHT22;11737;50.558;7.258;2022-11-15T10:10:44;15.10;99.90
23137;DHT22;11737;50.558;7.258;2022-11-15T10:13:33;15.20;99.90
23137;DHT22;11737;50.558;7.258;2022-11-15T10:18:56;15.10;99.90
23137;DHT22;11737;50.558;7.258;2022-11-15T10:21:25;15.20;99.90
23137;DHT22;11737;50.558;7.258;2022-11-15T10:23:53;15.10;99.90
23137;DHT22;11737;50.558;7.258;2022-11-15T10:26:22;15.20;99.90
23137;DHT22;11737;50.558;7.258;2022-11-15T10:28:51;15.20;99.90
23137;DHT22;11737;50.558;7.258;2022-11-15T10:31:27;15.20;99.90
23137;DHT22;11737;50.558;7.258;2022-11-15T10:34:05;15.30;99.90
23137;DHT22;11737;50.558;7.258;2022-11-15T10:36:28;15.30;99.90
23137;DHT22;11737;50.558;7.258;2022-11-15T10:38:56;15.30;99.90
23137;DHT22;11737;50.558;7.258;2022-11-15T10:49:28;15.50;99.90
23137;DHT22;11737;50.558;7.258;2022-11-15T10:52:01;15.50;99.90
23137;DHT22;11737;50.558;7.258;2022-11-15T10:54:37;15.50;99.90
23137;DHT22;11737;50.558;7.258;2022-11-15T10:57:08;15.50;99.90
23137;DHT22;11737;50.558;7.258;2022-11-15T10:59:37;15.50;99.90
23137;DHT22;11737;50.558;7.258;2022-11-15T11:02:27;15.50;99.90
23137;DHT22;11737;50.558;7.258;2022-11-15T11:04:55;15.60;99.90
23137;DHT22;11737;50.558;7.258;2022-11-15T11:07:29;15.70;99.90
23137;DHT22;11737;50.558;7.258;2022-11-15T11:10:01;15.80;99.90
23137;DHT22;11737;50.558;7.258;2022-11-15T11:15:18;16.00;99.90
23137;DHT22;11737;50.558;7.258;2022-11-15T11:17:57;16.20;99.90
23137;DHT22;11737;50.558;7.258;2022-11-15T11:26:29;16.60;99.90
23137;DHT22;11737;50.558;7.258;2022-11-15T11:31:58;16.80;99.90
23137;DHT22;11737;50.558;7.258;2022-11-15T11:43:26;16.70;99.90
23137;DHT22;11737;50.558;7.258;2022-11-15T11:51:20;16.70;99.90
23137;DHT22;11737;50.558;7.258;2022-11-15T11:56:48;16.70;99.90
23137;DHT22;11737;50.558;7.258;2022-11-15T12:01:54;16.70;99.90
23137;DHT22;11737;50.558;7.258;2022-11-15T12:04:30;16.80;99.90
23137;DHT22;11737;50.558;7.258;2022-11-15T12:07:03;16.80;99.90
23137;DHT22;11737;50.558;7.258;2022-11-15T12:15:17;17.00;99.90
23137;DHT22;11737;50.558;7.258;2022-11-15T12:17:46;17.10;99.90
23137;DHT22;11737;50.558;7.258;2022-11-15T12:20:21;17.20;99.90
23137;DHT22;11737;50.558;7.258;2022-11-15T12:26:04;17.30;99.90
23137;DHT22;11737;50.558;7.258;2022-11-15T12:28:55;17.30;99.90
23137;DHT22;11737;50.558;7.258;2022-11-15T12:42:44;17.40;99.90
23137;DHT22;11737;50.558;7.258;2022-11-15T12:45:25;17.50;99.90
23137;DHT22;11737;50.558;7.258;2022-11-15T12:47:54;17.60;99.90
23137;DHT22;11737;50.558;7.258;2022-11-15T12:56:24;18.00;99.90
23137;DHT22;11737;50.558;7.258;2022-11-15T12:58:44;18.00;99.90
23137;DHT22;11737;50.558;7.258;2022-11-15T13:04:25;17.90;99.90
23137;DHT22;11737;50.558;7.258;2022-11-15T13:07:06;17.70;99.90
23137;DHT22;11737;50.558;7.258;2022-11-15T13:14:41;17.30;99.90
23137;DHT22;11737;50.558;7.258;2022-11-15T13:17:36;17.30;99.90
23137;DHT22;11737;50.558;7.258;2022-11-15T13:22:47;17.50;99.90
23137;DHT22;11737;50.558;7.258;2022-11-15T13:30:53;17.50;99.90
23137;DHT22;11737;50.558;7.258;2022-11-15T13:33:35;17.50;99.90
23137;DHT22;11737;50.558;7.258;2022-11-15T13:38:54;17.40;99.90
23137;DHT22;11737;50.558;7.258;2022-11-15T13:41:26;17.30;99.90
23137;DHT22;11737;50.558;7.258;2022-11-15T13:43:54;17.20;99.90
23137;DHT22;11737;50.558;7.258;2022-11-15T13:46:32;17.20;99.90
23137;DHT22;11737;50.558;7.258;2022-11-15T13:48:58;17.10;99.90
23137;DHT22;11737;50.558;7.258;2022-11-15T13:51:43;17.10;99.90
23137;DHT22;11737;50.558;7.258;2022-11-15T13:57:00;17.00;99.90
23137;DHT22;11737;50.558;7.258;2022-11-15T13:59:34;17.00;99.90
23137;DHT22;11737;50.558;7.258;2022-11-15T14:02:11;17.00;99.90
23137;DHT22;11737;50.558;7.258;2022-11-15T14:04:30;17.00;99.90
23137;DHT22;11737;50.558;7.258;2022-11-15T14:07:01;17.00;99.90
23137;DHT22;11737;50.558;7.258;2022-11-15T14:09:40;17.00;99.90
23137;DHT22;11737;50.558;7.258;2022-11-15T14:12:27;16.90;99.90
23137;DHT22;11737;50.558;7.258;2022-11-15T14:14:56;16.90;99.90
23137;DHT22;11737;50.558;7.258;2022-11-15T14:17:35;16.90;99.90
23137;DHT22;11737;50.558;7.258;2022-11-15T14:20:26;16.80;99.90
23137;DHT22;11737;50.558;7.258;2022-11-15T14:22:54;16.70;99.90
23137;DHT22;11737;50.558;7.258;2022-11-15T14:25:24;16.70;99.90
23137;DHT22;11737;50.558;7.258;2022-11-15T14:28:11;16.60;99.90
23137;DHT22;11737;50.558;7.258;2022-11-15T14:30:40;16.60;99.90
23137;DHT22;11737;50.558;7.258;2022-11-15T14:35:51;16.40;99.90
23137;DHT22;11737;50.558;7.258;2022-11-15T14:38:19;16.40;99.90
23137;DHT22;11737;50.558;7.258;2022-11-15T14:40:47;16.30;99.90
23137;DHT22;11737;50.558;7.258;2022-11-15T14:43:14;16.30;99.90
23137;DHT22;11737;50.558;7.258;2022-11-15T14:45:42;16.30;99.90
23137;DHT22;11737;50.558;7.258;2022-11-15T14:48:10;16.30;99.90
23137;DHT22;11737;50.558;7.258;2022-11-15T14:50:37;16.30;99.90
23137;DHT22;11737;50.558;7.258;2022-11-15T14:53:05;16.20;99.90
23137;DHT22;11737;50.558;7.258;2022-11-15T14:55:34;16.20;99.90
23137;DHT22;11737;50.558;7.258;2022-11-15T14:58:03;16.10;99.90
23137;DHT22;11737;50.558;7.258;2022-11-15T15:00:32;16.00;99.90
23137;DHT22;11737;50.558;7.258;2022-11-15T15:02:59;16.00;99.90
23137;DHT22;11737;50.558;7.258;2022-11-15T15:05:35;16.00;99.90
23137;DHT22;11737;50.558;7.258;2022-11-15T15:08:04;15.90;99.90
23137;DHT22;11737;50.558;7.258;2022-11-15T15:10:40;15.80;99.90
23137;DHT22;11737;50.558;7.258;2022-11-15T15:13:23;15.80;99.90
23137;DHT22;11737;50.558;7.258;2022-11-15T15:15:51;15.80;99.90
23137;DHT22;11737;50.558;7.258;2022-11-15T15:18:19;15.70;99.90
23137;DHT22;11737;50.558;7.258;2022-11-15T15:20:55;15.70;99.90
23137;DHT22;11737;50.558;7.258;2022-11-15T15:23:20;15.60;99.90
23137;DHT22;11737;50.558;7.258;2022-11-15T15:25:49;15.50;99.90
23137;DHT22;11737;50.558;7.258;2022-11-15T15:28:16;15.50;99.90
23137;DHT22;11737;50.558;7.258;2022-11-15T15:30:44;15.40;99.90
23137;DHT22;11737;50.558;7.258;2022-11-15T15:33:11;15.40;99.90
23137;DHT22;11737;50.558;7.258;2022-11-15T15:35:39;15.30;99.90
23137;DHT22;11737;50.558;7.258;2022-11-15T15:38:08;15.30;99.90
23137;DHT22;11737;50.558;7.258;2022-11-15T15:40:35;15.30;99.90
23137;DHT22;11737;50.558;7.258;2022-11-15T15:43:03;15.30;99.90
23137;DHT22;11737;50.558;7.258;2022-11-15T15:45:31;15.20;99.90
23137;DHT22;11737;50.558;7.258;2022-11-15T15:47:59;15.20;99.90
23137;DHT22;11737;50.558;7.258;2022-11-15T15:53:18;15.20;99.90
23137;DHT22;11737;50.558;7.258;2022-11-15T15:55:45;15.10;99.90
23137;DHT22;11737;50.558;7.258;2022-11-15T15:58:13;15.10;99.90
23137;DHT22;11737;50.558;7.258;2022-11-15T16:00:40;15.10;99.90
23137;DHT22;11737;50.558;7.258;2022-11-15T16:03:07;15.10;99.90
23137;DHT22;11737;50.558;7.258;2022-11-15T16:05:35;15.00;99.90
23137;DHT22;11737;50.558;7.258;2022-11-15T16:08:03;15.00;99.90
23137;DHT22;11737;50.558;7.258;2022-11-15T16:10:34;15.00;99.90
23137;DHT22;11737;50.558;7.258;2022-11-15T16:13:03;15.00;99.90
23137;DHT22;11737;50.558;7.258;2022-11-15T16:15:31;15.00;99.90
23137;DHT22;11737;50.558;7.258;2022-11-15T16:18:00;15.00;99.90
23137;DHT22;11737;50.558;7.258;2022-11-15T16:23:12;15.10;99.90
23137;DHT22;11737;50.558;7.258;2022-11-15T16:25:44;15.20;99.90
23137;DHT22;11737;50.558;7.258;2022-11-15T16:28:22;15.20;99.90
23137;DHT22;11737;50.558;7.258;2022-11-15T16:31:01;15.20;99.90
23137;DHT22;11737;50.558;7.258;2022-11-15T16:33:20;15.20;99.90
23137;DHT22;11737;50.558;7.258;2022-11-15T16:35:48;15.30;99.90
23137;DHT22;11737;50.558;7.258;2022-11-15T16:38:16;15.40;99.90
23137;DHT22;11737;50.558;7.258;2022-11-15T16:40:44;15.40;99.90
23137;DHT22;11737;50.558;7.258;2022-11-15T16:43:12;15.50;99.90
23137;DHT22;11737;50.558;7.258;2022-11-15T16:45:39;15.50;99.90
23137;DHT22;11737;50.558;7.258;2022-11-15T16:48:22;15.50;99.90
23137;DHT22;11737;50.558;7.258;2022-11-15T16:50:53;15.40;99.90
23137;DHT22;11737;50.558;7.258;2022-11-15T16:53:19;15.40;99.90
23137;DHT22;11737;50.558;7.258;2022-11-15T16:55:47;15.40;99.90
23137;DHT22;11737;50.558;7.258;2022-11-15T16:58:14;15.40;99.90
23137;DHT22;11737;50.558;7.258;2022-11-15T17:00:42;15.40;99.90
23137;DHT22;11737;50.558;7.258;2022-11-15T17:03:09;15.50;99.90
23137;DHT22;11737;50.558;7.258;2022-11-15T17:05:37;15.40;99.90
23137;DHT22;11737;50.558;7.258;2022-11-15T17:08:04;15.30;99.90
23137;DHT22;11737;50.558;7.258;2022-11-15T17:10:32;15.40;99.90
23137;DHT22;11737;50.558;7.258;2022-11-15T17:13:00;15.30;99.90
23137;DHT22;11737;50.558;7.258;2022-11-15T17:15:28;15.30;99.90
23137;DHT22;11737;50.558;7.258;2022-11-15T17:17:55;15.30;99.90
23137;DHT22;11737;50.558;7.258;2022-11-15T17:20:24;15.20;99.90
23137;DHT22;11737;50.558;7.258;2022-11-15T17:22:52;15.20;99.90
23137;DHT22;11737;50.558;7.258;2022-11-15T17:25:20;15.20;99.90
23137;DHT22;11737;50.558;7.258;2022-11-15T17:27:47;15.30;99.90
23137;DHT22;11737;50.558;7.258;2022-11-15T17:30:15;15.20;99.90
23137;DHT22;11737;50.558;7.258;2022-11-15T17:32:44;15.20;99.90
23137;DHT22;11737;50.558;7.258;2022-11-15T17:35:13;15.20;99.90
23137;DHT22;11737;50.558;7.258;2022-11-15T17:37:40;15.20;99.90
23137;DHT22;11737;50.558;7.258;2022-11-15T17:40:08;15.20;99.90
23137;DHT22;11737;50.558;7.258;2022-11-15T17:42:36;15.10;99.90
23137;DHT22;11737;50.558;7.258;2022-11-15T17:45:06;15.10;99.90
23137;DHT22;11737;50.558;7.258;2022-11-15T17:47:33;15.10;99.90
23137;DHT22;11737;50.558;7.258;2022-11-15T17:50:01;15.00;99.90
23137;DHT22;11737;50.558;7.258;2022-11-15T17:52:28;15.10;99.90
23137;DHT22;11737;50.558;7.258;2022-11-15T17:54:56;15.00;99.90
23137;DHT22;11737;50.558;7.258;2022-11-15T17:57:23;15.00;99.90
23137;DHT22;11737;50.558;7.258;2022-11-15T17:59:51;14.90;99.90
23137;DHT22;11737;50.558;7.258;2022-11-15T18:02:18;14.90;99.90
23137;DHT22;11737;50.558;7.258;2022-11-15T18:04:46;14.90;99.90